Decoded Metar for KGOK (GUTHRIE in OK, USA) (IATA:GOK) | Meteo·Mobile Aviation Weather
aviador You're here:

KGOK Decoded Metar

GUTHRIE in OK, USA
Report Time2019-01-19 16:53:00
UTC Time2019-01-19 17:09:05
Flight Rules mvfr MVFR
Wind340° at 13 Gusting to 26 kt
W.Decomp.*RWY 34: 12.9 kt HW 1.6 kt LCW
W.Rank340° ranks 22
Current wind is above 340° avg. (6.3)
Visibility9999 m
Phenomena:N/A
Clouds:Overcast 021 Hf
Expected CloudBase > 2,000 ft AGL from Temp-Dew spread
Ceiling2,100 ft
Temp-4°C (ISA -17)
Dew Point-9°C (69% RH)
AAT-11.6°C
QNH1024 hPa
Density Alt-1,342 ft
Elevation1,063 ft
Report Wrong Elevation
Raw Report
KGOK 191653Z AUTO 34013G26KT 10SM OVC021 M04/M09 A3025 RMK AO2 PK
WND 36030/1641 SLP256 T10441089=

Extra information for KGOK:More info

Metar Taf Metar & Taf Last 4 Metars F.Rules Stats Wind Profile Meteogram Temp Stats Airport Information Weather charts Add Link Nearby VenuesMetar ALERT Operation Metar Decoded Social comments

AIRNAV info for KGOK